createdAt,value
2023-02-24T00:02:02.343Z,12.50
2023-02-24T00:04:32.674Z,12.03
2023-02-24T00:07:01.384Z,12.10
2023-02-24T00:09:32.228Z,12.30
2023-02-24T00:12:03.121Z,11.63
2023-02-24T00:14:34.552Z,11.73
2023-02-24T00:17:03.095Z,11.60
2023-02-24T00:19:34.145Z,12.70
2023-02-24T00:22:05.928Z,11.93
2023-02-24T00:24:36.833Z,11.67
2023-02-24T00:27:11.404Z,12.97
2023-02-24T00:29:40.394Z,11.73
2023-02-24T00:32:13.394Z,11.97
2023-02-24T00:34:44.220Z,10.83
2023-02-24T00:37:12.615Z,11.13
2023-02-24T00:39:44.496Z,11.30
2023-02-24T00:42:13.108Z,10.90
2023-02-24T00:44:45.411Z,10.80
2023-02-24T00:47:17.088Z,10.03
2023-02-24T00:49:46.127Z,10.03
2023-02-24T00:52:18.037Z,9.37
2023-02-24T00:54:49.965Z,9.37
2023-02-24T00:57:21.526Z,8.70
2023-02-24T00:59:52.417Z,10.00
2023-02-24T01:02:21.624Z,9.73
2023-02-24T01:04:51.209Z,9.50
2023-02-24T01:07:19.513Z,9.83
2023-02-24T01:09:52.505Z,9.50
2023-02-24T01:12:38.920Z,8.97
2023-02-24T01:15:10.230Z,8.30
2023-02-24T01:17:38.671Z,9.23
2023-02-24T01:20:16.742Z,8.20
2023-02-24T01:22:46.108Z,8.57
2023-02-24T01:25:15.985Z,9.43
2023-02-24T01:27:44.467Z,8.73
2023-02-24T01:30:16.196Z,9.77
2023-02-24T01:32:45.252Z,9.60
2023-02-24T01:35:14.754Z,8.37
2023-02-24T01:37:43.335Z,9.47
2023-02-24T01:40:21.916Z,9.40
2023-02-24T01:42:51.126Z,9.33
2023-02-24T01:45:26.172Z,9.10
2023-02-24T01:47:56.314Z,9.40
2023-02-24T01:50:26.540Z,9.43
2023-02-24T01:52:58.748Z,8.83
2023-02-24T01:55:33.897Z,8.93
2023-02-24T01:58:06.484Z,9.47
2023-02-24T02:00:45.573Z,9.80
2023-02-24T02:03:28.134Z,9.70
2023-02-24T02:06:01.717Z,9.77
2023-02-24T02:08:30.610Z,9.97
2023-02-24T02:11:06.559Z,9.50
2023-02-24T02:13:38.281Z,8.63
2023-02-24T02:16:25.826Z,8.77
2023-02-24T02:19:08.255Z,8.57
2023-02-24T02:22:05.699Z,8.13
2023-02-24T02:24:50.708Z,8.17
2023-02-24T02:27:29.639Z,8.47
2023-02-24T02:30:49.600Z,8.20
2023-02-24T02:34:00.966Z,8.93
2023-02-24T02:36:40.095Z,7.80
2023-02-24T02:39:18.093Z,7.90
2023-02-24T02:41:55.078Z,7.50
2023-02-24T02:44:32.397Z,7.47
2023-02-24T02:47:06.414Z,6.80
2023-02-24T02:49:40.181Z,7.07
2023-02-24T02:52:15.684Z,7.40
2023-02-24T02:54:51.289Z,7.13
2023-02-24T02:57:25.100Z,7.10
2023-02-24T02:59:57.618Z,7.17
2023-02-24T03:02:30.812Z,8.00
2023-02-24T03:05:02.521Z,6.73
2023-02-24T03:07:40.590Z,7.30
2023-02-24T03:10:17.831Z,6.60
2023-02-24T03:12:50.888Z,8.27
2023-02-24T03:15:22.304Z,7.70
2023-02-24T03:17:56.796Z,7.70
2023-02-24T03:20:29.476Z,8.93
2023-02-24T03:23:03.861Z,9.20
2023-02-24T03:25:44.605Z,8.77
2023-02-24T03:28:17.869Z,9.70
2023-02-24T03:30:52.326Z,9.27
2023-02-24T03:33:26.631Z,9.10
2023-02-24T03:35:56.604Z,10.17
2023-02-24T03:38:26.321Z,10.57
2023-02-24T03:40:56.326Z,10.83
2023-02-24T03:43:28.128Z,10.73
2023-02-24T03:45:57.632Z,10.97
2023-02-24T03:48:28.491Z,11.60
2023-02-24T03:50:59.545Z,12.10
2023-02-24T03:53:43.255Z,12.13
2023-02-24T03:56:27.112Z,11.60
2023-02-24T03:59:08.274Z,11.83
2023-02-24T04:01:46.616Z,12.27
2023-02-24T04:04:27.656Z,12.23
2023-02-24T04:06:59.941Z,13.50
2023-02-24T04:09:40.099Z,13.00
2023-02-24T04:12:17.263Z,13.00
2023-02-24T04:14:52.289Z,12.73
2023-02-24T04:17:24.242Z,12.03
2023-02-24T04:20:09.417Z,11.97
2023-02-24T04:22:38.350Z,12.33
2023-02-24T04:25:13.876Z,13.97
2023-02-24T04:27:43.966Z,13.33
2023-02-24T04:30:14.375Z,13.80
2023-02-24T04:32:44.407Z,13.83
2023-02-24T04:35:16.902Z,13.33
2023-02-24T04:37:46.600Z,12.73
2023-02-24T04:40:22.185Z,14.00
2023-02-24T04:42:52.180Z,13.43
2023-02-24T04:45:23.605Z,13.33
2023-02-24T04:47:56.401Z,12.20
2023-02-24T04:50:26.746Z,11.70
2023-02-24T04:52:57.376Z,12.57
2023-02-24T04:55:33.183Z,11.67
2023-02-24T04:58:02.270Z,11.87
2023-02-24T05:00:35.676Z,12.70
2023-02-24T05:03:05.967Z,12.10
2023-02-24T05:05:35.830Z,11.67
2023-02-24T05:08:06.579Z,13.60
2023-02-24T05:10:41.140Z,13.23
2023-02-24T05:13:11.087Z,12.83
2023-02-24T05:15:42.114Z,13.07
2023-02-24T05:18:14.923Z,12.57
2023-02-24T05:21:02.467Z,13.57
2023-02-24T05:23:33.623Z,12.80
2023-02-24T05:26:08.568Z,12.80
2023-02-24T05:28:38.094Z,13.07
2023-02-24T05:31:08.612Z,13.00
2023-02-24T05:33:37.938Z,13.27
2023-02-24T05:36:10.111Z,13.60
2023-02-24T05:38:39.195Z,13.47
2023-02-24T05:41:15.223Z,14.20
2023-02-24T05:43:44.805Z,14.10
2023-02-24T05:46:13.735Z,14.20
2023-02-24T05:48:41.941Z,13.83
2023-02-24T05:51:12.398Z,15.47
2023-02-24T05:53:45.085Z,14.80
2023-02-24T05:56:14.799Z,14.93
2023-02-24T05:58:45.264Z,14.33
2023-02-24T06:01:16.500Z,15.20
2023-02-24T06:03:48.331Z,14.90
2023-02-24T06:06:17.803Z,15.10
2023-02-24T06:08:50.690Z,15.83
2023-02-24T06:11:21.723Z,15.67
2023-02-24T06:13:50.204Z,15.93
2023-02-24T06:16:20.312Z,14.67
2023-02-24T06:18:50.838Z,16.70
2023-02-24T06:21:19.390Z,16.07
2023-02-24T06:23:47.837Z,17.50
2023-02-24T06:26:19.720Z,16.73
2023-02-24T06:28:50.110Z,17.67
2023-02-24T06:31:18.455Z,17.37
2023-02-24T06:33:46.667Z,19.20
2023-02-24T06:36:15.995Z,19.73
2023-02-24T06:38:44.676Z,18.70
2023-02-24T06:41:13.229Z,18.87
2023-02-24T06:43:43.479Z,18.37
2023-02-24T06:46:17.922Z,19.30
2023-02-24T06:48:48.236Z,19.30
2023-02-24T06:51:18.177Z,20.20
2023-02-24T06:53:46.408Z,19.07
2023-02-24T06:56:18.176Z,20.23
2023-02-24T06:58:47.717Z,19.03
2023-02-24T07:01:20.729Z,18.97
2023-02-24T07:04:03.695Z,19.20
2023-02-24T07:06:34.561Z,19.30
2023-02-24T07:09:05.271Z,19.40
2023-02-24T07:11:38.571Z,20.83
2023-02-24T07:14:06.741Z,19.00
2023-02-24T07:16:37.272Z,20.47
2023-02-24T07:19:11.287Z,20.77
2023-02-24T07:21:41.085Z,20.13
2023-02-24T07:24:09.986Z,20.63
2023-02-24T07:26:42.100Z,20.43
2023-02-24T07:29:11.779Z,19.70
2023-02-24T07:31:43.176Z,22.70
2023-02-24T07:34:15.190Z,22.37
2023-02-24T07:36:49.443Z,22.23
2023-02-24T07:39:18.593Z,21.60
2023-02-24T07:41:49.695Z,21.57
2023-02-24T07:44:19.481Z,21.27
2023-02-24T07:46:50.209Z,22.20
2023-02-24T07:49:21.630Z,22.90
2023-02-24T07:51:53.073Z,20.23
2023-02-24T07:54:23.407Z,20.07
2023-02-24T07:56:59.235Z,19.50
2023-02-24T07:59:29.757Z,19.47
2023-02-24T08:02:00.775Z,18.43
2023-02-24T08:04:33.281Z,19.57
2023-02-24T08:07:03.464Z,17.23
2023-02-24T08:10:08.679Z,18.40
2023-02-24T08:12:36.997Z,17.30
2023-02-24T08:15:17.377Z,16.70
2023-02-24T08:17:48.033Z,19.00
2023-02-24T08:20:30.264Z,17.63
2023-02-24T08:23:00.390Z,15.93
2023-02-24T08:25:36.198Z,16.33
2023-02-24T08:28:09.356Z,16.27
2023-02-24T08:30:40.317Z,14.60
2023-02-24T08:33:16.147Z,14.87
2023-02-24T08:35:45.609Z,14.03
2023-02-24T08:38:16.686Z,13.37
2023-02-24T08:40:54.602Z,13.00
2023-02-24T08:43:33.271Z,13.53
2023-02-24T08:46:05.197Z,13.03
2023-02-24T08:48:38.855Z,13.10
2023-02-24T08:51:11.696Z,12.13
2023-02-24T08:53:41.623Z,12.50
2023-02-24T08:56:12.808Z,12.23
2023-02-24T08:58:47.584Z,13.00
2023-02-24T09:01:24.734Z,11.70
2023-02-24T09:03:57.553Z,11.53
2023-02-24T09:06:36.446Z,11.60
2023-02-24T09:09:21.445Z,10.60
2023-02-24T09:11:56.812Z,9.80
2023-02-24T09:14:29.279Z,8.87
2023-02-24T09:17:07.150Z,9.33
2023-02-24T09:20:02.427Z,8.43
2023-02-24T09:22:31.902Z,9.20
2023-02-24T09:25:24.286Z,8.63
2023-02-24T09:27:56.272Z,8.57
2023-02-24T09:30:51.262Z,8.90
2023-02-24T09:33:23.053Z,9.43
2023-02-24T09:36:10.897Z,8.80
2023-02-24T09:38:57.672Z,8.57
2023-02-24T09:41:33.819Z,8.30
2023-02-24T09:44:07.990Z,8.37
2023-02-24T09:46:54.335Z,8.03
2023-02-24T09:49:25.971Z,7.93
2023-02-24T09:52:00.866Z,7.60
2023-02-24T09:54:36.093Z,7.97
2023-02-24T09:57:16.965Z,8.07
2023-02-24T10:00:01.420Z,7.23
2023-02-24T10:02:44.718Z,8.10
2023-02-24T10:05:27.652Z,7.77
2023-02-24T10:08:00.708Z,7.23
2023-02-24T10:10:36.060Z,7.40
2023-02-24T10:13:15.226Z,7.80
2023-02-24T10:15:59.672Z,8.17
2023-02-24T10:18:34.325Z,8.00
2023-02-24T10:21:15.699Z,7.40
2023-02-24T10:24:05.735Z,7.90
2023-02-24T10:26:59.534Z,7.97
2023-02-24T10:29:39.456Z,7.90
2023-02-24T10:32:24.172Z,9.00
2023-02-24T10:34:53.419Z,8.07
2023-02-24T10:37:28.574Z,7.50
2023-02-24T10:40:00.531Z,7.00
2023-02-24T10:42:32.902Z,7.47
2023-02-24T10:45:18.773Z,6.83
2023-02-24T10:47:57.393Z,7.10
2023-02-24T10:50:37.471Z,6.80
2023-02-24T10:53:28.633Z,7.47
2023-02-24T10:56:18.850Z,7.00
2023-02-24T10:59:17.979Z,6.63
2023-02-24T11:01:55.178Z,7.13
2023-02-24T11:04:44.366Z,6.50
2023-02-24T11:07:24.867Z,6.50
2023-02-24T11:10:26.420Z,5.80
2023-02-24T11:13:14.816Z,6.03
2023-02-24T11:16:04.598Z,5.87
2023-02-24T11:18:34.829Z,5.47
2023-02-24T11:21:05.306Z,6.57
2023-02-24T11:23:37.779Z,5.90
2023-02-24T11:26:17.016Z,5.13
2023-02-24T11:29:04.417Z,6.07
2023-02-24T11:31:46.126Z,4.97
2023-02-24T11:34:24.918Z,4.83
2023-02-24T11:37:06.781Z,4.93
2023-02-24T11:39:53.297Z,5.17
2023-02-24T11:42:28.010Z,4.90
2023-02-24T11:45:05.269Z,4.77
2023-02-24T11:47:41.286Z,5.60
2023-02-24T11:50:31.047Z,5.50
2023-02-24T11:53:12.123Z,5.73
2023-02-24T11:55:47.076Z,5.17
2023-02-24T11:58:23.261Z,5.73
2023-02-24T12:01:01.432Z,5.73
2023-02-24T12:03:36.672Z,5.60
2023-02-24T12:06:15.110Z,5.73
2023-02-24T12:08:49.064Z,5.77
2023-02-24T12:11:25.342Z,5.03
2023-02-24T12:14:00.887Z,5.53
2023-02-24T12:16:37.599Z,5.80
2023-02-24T12:19:18.800Z,4.93
2023-02-24T12:21:53.679Z,4.60
2023-02-24T12:24:25.547Z,5.40
2023-02-24T12:27:06.589Z,5.40
2023-02-24T12:29:52.514Z,5.10
2023-02-24T12:32:31.938Z,5.50
2023-02-24T12:35:14.126Z,5.20
2023-02-24T12:37:53.994Z,5.67
2023-02-24T12:40:32.439Z,4.87
2023-02-24T12:43:13.223Z,4.73
2023-02-24T12:45:53.642Z,4.37
2023-02-24T12:48:41.034Z,4.80
2023-02-24T12:51:14.484Z,4.93
2023-02-24T12:53:49.101Z,4.60
2023-02-24T12:56:24.380Z,5.20
2023-02-24T12:58:58.288Z,4.50
2023-02-24T13:01:33.451Z,4.70
2023-02-24T13:04:14.355Z,4.03
2023-02-24T13:06:55.954Z,3.77
2023-02-24T13:09:33.926Z,3.97
2023-02-24T13:12:13.284Z,4.20
2023-02-24T13:14:46.326Z,4.30
2023-02-24T13:17:21.695Z,3.83
2023-02-24T13:19:53.465Z,4.47
2023-02-24T13:22:25.565Z,3.80
2023-02-24T13:25:16.240Z,4.30
2023-02-24T13:27:45.259Z,3.70
2023-02-24T13:30:37.282Z,3.63
2023-02-24T13:33:22.524Z,4.00
2023-02-24T13:35:56.056Z,3.50
2023-02-24T13:38:35.612Z,3.20
2023-02-24T13:41:09.845Z,3.23
2023-02-24T13:43:38.287Z,3.30
2023-02-24T13:46:19.021Z,3.40
2023-02-24T13:49:02.023Z,3.17
2023-02-24T13:51:54.059Z,3.40
2023-02-24T13:54:52.599Z,3.43
2023-02-24T13:58:09.380Z,3.33
2023-02-24T14:00:53.711Z,3.27
2023-02-24T14:03:25.671Z,2.80
2023-02-24T14:05:55.526Z,3.53
2023-02-24T14:08:34.453Z,3.03
2023-02-24T14:11:06.416Z,2.70
2023-02-24T14:13:36.860Z,2.80
2023-02-24T14:16:11.867Z,2.60
2023-02-24T14:18:41.424Z,2.67
2023-02-24T14:21:24.171Z,2.20
2023-02-24T14:24:02.455Z,2.17
2023-02-24T14:26:36.668Z,1.90
2023-02-24T14:29:05.151Z,2.23
2023-02-24T14:31:35.825Z,1.80
2023-02-24T14:34:09.489Z,2.30
2023-02-24T14:36:43.391Z,2.03
2023-02-24T14:39:17.528Z,1.40
2023-02-24T14:41:47.623Z,1.90
2023-02-24T14:44:23.783Z,1.87
2023-02-24T14:46:55.006Z,2.33
2023-02-24T14:49:27.376Z,2.40
2023-02-24T14:52:00.460Z,1.90
2023-02-24T14:54:44.712Z,2.03
2023-02-24T14:57:16.059Z,2.70
2023-02-24T14:59:49.531Z,2.30
2023-02-24T15:02:24.827Z,2.10
2023-02-24T15:04:55.940Z,2.20
2023-02-24T15:07:29.578Z,2.00
2023-02-24T15:10:01.524Z,3.20
2023-02-24T15:12:35.330Z,1.53
2023-02-24T15:15:06.984Z,1.80
2023-02-24T15:17:40.595Z,1.87
2023-02-24T15:20:27.642Z,1.53
2023-02-24T15:22:55.782Z,1.60
2023-02-24T15:25:37.234Z,2.00
2023-02-24T15:28:24.556Z,2.43
2023-02-24T15:31:04.052Z,2.30
2023-02-24T15:33:37.136Z,1.80
2023-02-24T15:36:11.486Z,3.27
2023-02-24T15:38:42.700Z,2.43
2023-02-24T15:41:13.893Z,2.57
2023-02-24T15:43:48.078Z,4.97
2023-02-24T15:46:22.749Z,2.90
2023-02-24T15:48:53.530Z,3.70
2023-02-24T15:51:28.758Z,3.60
2023-02-24T15:53:57.261Z,3.10
2023-02-24T15:56:29.261Z,3.70
2023-02-24T15:58:59.132Z,3.70
2023-02-24T16:01:27.834Z,3.50
2023-02-24T16:03:56.066Z,3.63
2023-02-24T16:06:26.056Z,3.77
2023-02-24T16:08:58.659Z,4.30
2023-02-24T16:11:33.182Z,4.07
2023-02-24T16:14:01.891Z,4.50
2023-02-24T16:16:33.526Z,4.23
2023-02-24T16:19:01.760Z,4.07
2023-02-24T16:21:30.373Z,4.30
2023-02-24T16:23:58.747Z,4.40
2023-02-24T16:26:29.010Z,6.77
2023-02-24T16:28:59.470Z,4.53
2023-02-24T16:31:28.812Z,4.80
2023-02-24T16:33:58.643Z,5.77
2023-02-24T16:36:28.484Z,4.33
2023-02-24T16:38:57.059Z,4.83
2023-02-24T16:41:25.626Z,4.67
2023-02-24T16:43:55.165Z,4.63
2023-02-24T16:46:24.710Z,4.80
2023-02-24T16:48:54.919Z,6.63
2023-02-24T16:51:23.808Z,5.00
2023-02-24T16:53:52.023Z,4.80
2023-02-24T16:56:20.964Z,5.27
2023-02-24T16:58:49.391Z,4.93
2023-02-24T17:01:22.370Z,4.70
2023-02-24T17:03:54.064Z,5.43
2023-02-24T17:06:25.124Z,5.77
2023-02-24T17:08:55.245Z,5.43
2023-02-24T17:11:27.755Z,5.40
2023-02-24T17:13:55.901Z,5.13
2023-02-24T17:16:25.930Z,5.43
2023-02-24T17:18:54.397Z,6.83
2023-02-24T17:21:22.745Z,6.43
2023-02-24T17:23:51.745Z,5.30
2023-02-24T17:26:20.205Z,6.10
2023-02-24T17:28:49.043Z,5.90
2023-02-24T17:31:17.295Z,5.57
2023-02-24T17:33:46.869Z,5.23
2023-02-24T17:36:15.280Z,5.50
2023-02-24T17:38:43.408Z,5.40
2023-02-24T17:41:11.809Z,5.97
2023-02-24T17:43:40.025Z,5.90
2023-02-24T17:46:08.548Z,5.70
2023-02-24T17:48:37.101Z,5.80
2023-02-24T17:51:07.300Z,6.00
2023-02-24T17:53:35.575Z,6.33
2023-02-24T17:56:04.858Z,5.83
2023-02-24T17:58:34.014Z,6.27
2023-02-24T18:01:03.245Z,6.67
2023-02-24T18:03:32.323Z,6.40
2023-02-24T18:06:02.068Z,6.70
2023-02-24T18:08:33.197Z,6.03
2023-02-24T18:11:01.443Z,6.70
2023-02-24T18:13:30.825Z,6.80
2023-02-24T18:15:59.281Z,6.70
2023-02-24T18:18:30.405Z,6.70
2023-02-24T18:21:04.492Z,6.50
2023-02-24T18:23:34.922Z,6.80
2023-02-24T18:26:04.344Z,7.27
2023-02-24T18:28:33.597Z,6.60
2023-02-24T18:31:03.453Z,7.43
2023-02-24T18:33:31.784Z,7.50
2023-02-24T18:36:00.847Z,6.93
2023-02-24T18:38:29.858Z,7.47
2023-02-24T18:41:02.940Z,7.43
2023-02-24T18:43:32.301Z,7.60
2023-02-24T18:46:02.504Z,7.57
2023-02-24T18:48:31.641Z,8.17
2023-02-24T18:51:00.897Z,8.00
2023-02-24T18:53:31.869Z,7.67
2023-02-24T18:56:02.607Z,7.90
2023-02-24T18:58:31.319Z,8.00
2023-02-24T19:00:59.777Z,8.60
2023-02-24T19:03:28.458Z,9.20
2023-02-24T19:05:56.553Z,9.63
2023-02-24T19:08:24.842Z,9.40
2023-02-24T19:10:52.920Z,9.47
2023-02-24T19:13:24.163Z,9.17
2023-02-24T19:15:52.624Z,9.00
2023-02-24T19:18:20.948Z,9.77
2023-02-24T19:20:49.109Z,9.87
2023-02-24T19:23:17.264Z,9.87
2023-02-24T19:25:47.810Z,9.87
2023-02-24T19:28:17.315Z,10.33
2023-02-24T19:30:47.152Z,9.90
2023-02-24T19:33:15.530Z,11.13
2023-02-24T19:35:45.202Z,11.10
2023-02-24T19:38:15.301Z,12.23
2023-02-24T19:40:43.526Z,12.83
2023-02-24T19:43:12.683Z,12.97
2023-02-24T19:45:42.812Z,14.17
2023-02-24T19:48:12.635Z,13.37
2023-02-24T19:50:43.477Z,14.43
2023-02-24T19:53:13.668Z,14.17
2023-02-24T19:55:41.829Z,13.37
2023-02-24T19:58:09.842Z,13.23
2023-02-24T20:00:37.956Z,13.23
2023-02-24T20:03:06.051Z,13.47
2023-02-24T20:05:41.853Z,12.90
2023-02-24T20:08:10.369Z,13.47
2023-02-24T20:10:39.138Z,13.13
2023-02-24T20:13:08.786Z,13.23
2023-02-24T20:15:37.430Z,12.57
2023-02-24T20:18:08.850Z,13.50
2023-02-24T20:20:38.988Z,12.70
2023-02-24T20:23:07.448Z,12.33
2023-02-24T20:25:35.543Z,12.57
2023-02-24T20:28:04.212Z,12.07
2023-02-24T20:30:32.549Z,11.70
2023-02-24T20:33:00.911Z,10.57
2023-02-24T20:35:29.116Z,11.17
2023-02-24T20:37:58.686Z,11.33
2023-02-24T20:40:27.466Z,10.63
2023-02-24T20:42:55.469Z,9.97
2023-02-24T20:45:23.507Z,10.03
2023-02-24T20:47:51.929Z,9.27
2023-02-24T20:50:20.339Z,10.50
2023-02-24T20:52:48.459Z,10.40
2023-02-24T20:55:18.622Z,9.50
2023-02-24T20:57:46.873Z,9.63
2023-02-24T21:00:15.847Z,9.00
2023-02-24T21:02:44.258Z,8.20
2023-02-24T21:05:20.507Z,9.20
2023-02-24T21:07:50.161Z,8.63
2023-02-24T21:10:25.371Z,8.50
2023-02-24T21:12:54.830Z,8.23
2023-02-24T21:15:23.162Z,8.10
2023-02-24T21:17:51.416Z,7.87
2023-02-24T21:20:20.126Z,7.13
2023-02-24T21:22:48.295Z,7.00
2023-02-24T21:25:16.432Z,7.60
2023-02-24T21:27:48.582Z,7.50
2023-02-24T21:30:17.540Z,7.40
2023-02-24T21:32:45.669Z,7.47
2023-02-24T21:35:13.821Z,8.20
2023-02-24T21:37:41.928Z,7.73
2023-02-24T21:40:12.577Z,8.20
2023-02-24T21:42:43.994Z,7.90
2023-02-24T21:45:15.186Z,7.07
2023-02-24T21:47:43.520Z,7.73
2023-02-24T21:50:16.164Z,7.17
2023-02-24T21:52:47.023Z,7.77
2023-02-24T21:55:15.730Z,7.47
2023-02-24T21:57:45.878Z,6.87
2023-02-24T22:00:20.338Z,6.40
2023-02-24T22:02:50.047Z,6.73
2023-02-24T22:05:20.528Z,6.03
2023-02-24T22:07:49.967Z,5.93
2023-02-24T22:10:21.469Z,5.23
2023-02-24T22:12:50.825Z,4.90
2023-02-24T22:15:20.864Z,5.33
2023-02-24T22:17:49.045Z,4.90
2023-02-24T22:20:17.134Z,4.90
2023-02-24T22:22:45.412Z,3.73
2023-02-24T22:25:13.915Z,3.40
2023-02-24T22:27:43.188Z,2.77
2023-02-24T22:30:14.179Z,2.20
2023-02-24T22:32:44.296Z,2.10
2023-02-24T22:35:12.643Z,2.33
2023-02-24T22:37:41.129Z,2.13
2023-02-24T22:40:10.686Z,1.57
2023-02-24T22:42:39.040Z,1.77
2023-02-24T22:45:08.669Z,1.50
2023-02-24T22:47:37.028Z,1.50
2023-02-24T22:50:07.407Z,1.87
2023-02-24T22:52:35.767Z,1.57
2023-02-24T22:55:03.832Z,1.80
2023-02-24T22:57:34.296Z,1.40
2023-02-24T23:00:02.501Z,1.40
2023-02-24T23:02:31.020Z,1.37
2023-02-24T23:04:59.595Z,1.40
2023-02-24T23:07:29.724Z,1.60
2023-02-24T23:09:59.435Z,1.40
2023-02-24T23:12:27.968Z,1.40
2023-02-24T23:14:56.311Z,1.30
2023-02-24T23:17:24.352Z,1.60
2023-02-24T23:19:52.456Z,1.40
2023-02-24T23:22:20.899Z,1.60
2023-02-24T23:24:53.673Z,1.43
2023-02-24T23:27:23.612Z,1.60
2023-02-24T23:29:51.837Z,1.43
2023-02-24T23:32:20.292Z,1.80
2023-02-24T23:34:48.724Z,1.60
2023-02-24T23:37:16.940Z,2.07
2023-02-24T23:39:45.077Z,1.60
2023-02-24T23:42:14.895Z,2.00
2023-02-24T23:44:44.390Z,1.80
2023-02-24T23:47:14.814Z,1.90
2023-02-24T23:49:48.507Z,2.60
2023-02-24T23:52:17.232Z,2.00
2023-02-24T23:54:49.997Z,2.47
2023-02-24T23:57:19.809Z,2.30
2023-02-24T23:59:47.934Z,2.50
